sensor_id;sensor_type;location;lat;lon;timestamp;pressure;altitude;pressure_sealevel;temperature;humidity
6435;BME280;3250;42.694;23.278;2023-04-30T00:01:37;94533.81;;;11.04;79.46
6435;BME280;3250;42.694;23.278;2023-04-30T00:04:02;94540.69;;;11.05;79.50
6435;BME280;3250;42.694;23.278;2023-04-30T00:06:28;94526.66;;;10.92;79.75
6435;BME280;3250;42.694;23.278;2023-04-30T00:08:53;94527.59;;;10.98;79.64
6435;BME280;3250;42.694;23.278;2023-04-30T00:11:20;94537.97;;;10.93;79.50
6435;BME280;3250;42.694;23.278;2023-04-30T00:13:45;94535.00;;;10.89;79.92
6435;BME280;3250;42.694;23.278;2023-04-30T00:16:10;94491.19;;;10.58;80.32
6435;BME280;3250;42.694;23.278;2023-04-30T00:18:37;94526.66;;;10.74;80.52
6435;BME280;3250;42.694;23.278;2023-04-30T00:21:02;94532.06;;;10.79;80.46
6435;BME280;3250;42.694;23.278;2023-04-30T00:23:28;94537.56;;;10.78;80.40
6435;BME280;3250;42.694;23.278;2023-04-30T00:25:53;94532.50;;;10.76;80.38
6435;BME280;3250;42.694;23.278;2023-04-30T00:28:18;94534.41;;;10.69;80.46
6435;BME280;3250;42.694;23.278;2023-04-30T00:30:44;94532.22;;;10.66;80.51
6435;BME280;3250;42.694;23.278;2023-04-30T00:33:10;94527.63;;;10.62;80.72
6435;BME280;3250;42.694;23.278;2023-04-30T00:35:35;94535.78;;;10.53;80.58
6435;BME280;3250;42.694;23.278;2023-04-30T00:38:00;94510.56;;;10.28;80.82
6435;BME280;3250;42.694;23.278;2023-04-30T00:40:26;94539.13;;;10.42;81.02
6435;BME280;3250;42.694;23.278;2023-04-30T00:42:51;94535.31;;;10.38;81.42
6435;BME280;3250;42.694;23.278;2023-04-30T00:45:20;94529.69;;;10.35;81.16
6435;BME280;3250;42.694;23.278;2023-04-30T00:47:46;94534.59;;;10.31;81.01
6435;BME280;3250;42.694;23.278;2023-04-30T00:50:12;94521.91;;;10.21;81.40
6435;BME280;3250;42.694;23.278;2023-04-30T00:52:41;94529.31;;;10.06;81.88
6435;BME280;3250;42.694;23.278;2023-04-30T00:55:07;94528.34;;;10.01;82.50
6435;BME280;3250;42.694;23.278;2023-04-30T00:57:34;94533.97;;;10.04;81.90
6435;BME280;3250;42.694;23.278;2023-04-30T01:00:00;94528.09;;;10.09;81.80
6435;BME280;3250;42.694;23.278;2023-04-30T01:02:26;94526.25;;;10.09;81.44
6435;BME280;3250;42.694;23.278;2023-04-30T01:04:51;94508.56;;;9.98;81.88
6435;BME280;3250;42.694;23.278;2023-04-30T01:07:17;94525.28;;;10.04;81.88
6435;BME280;3250;42.694;23.278;2023-04-30T01:09:43;94526.09;;;10.04;81.41
6435;BME280;3250;42.694;23.278;2023-04-30T01:12:22;94524.13;;;10.00;81.64
6435;BME280;3250;42.694;23.278;2023-04-30T01:18:17;94519.72;;;9.94;81.75
6435;BME280;3250;42.694;23.278;2023-04-30T01:20:52;94530.88;;;9.89;81.50
6435;BME280;3250;42.694;23.278;2023-04-30T01:23:41;94525.47;;;9.84;82.01
6435;BME280;3250;42.694;23.278;2023-04-30T01:26:14;94533.34;;;9.84;81.80
6435;BME280;3250;42.694;23.278;2023-04-30T01:28:45;94526.47;;;9.83;81.96
6435;BME280;3250;42.694;23.278;2023-04-30T01:31:12;94521.03;;;9.78;82.32
6435;BME280;3250;42.694;23.278;2023-04-30T01:33:38;94521.84;;;9.78;81.93
6435;BME280;3250;42.694;23.278;2023-04-30T01:44:53;94523.94;;;9.70;82.56
6435;BME280;3250;42.694;23.278;2023-04-30T01:52:52;94530.00;;;9.70;82.72
6435;BME280;3250;42.694;23.278;2023-04-30T01:58:00;94537.47;;;9.73;82.52
6435;BME280;3250;42.694;23.278;2023-04-30T02:00:28;94534.41;;;9.76;83.12
6435;BME280;3250;42.694;23.278;2023-04-30T02:02:55;94533.16;;;9.79;83.16
6435;BME280;3250;42.694;23.278;2023-04-30T02:05:20;94530.13;;;9.82;83.10
6435;BME280;3250;42.694;23.278;2023-04-30T02:07:48;94537.19;;;9.81;83.23
6435;BME280;3250;42.694;23.278;2023-04-30T02:10:17;94528.19;;;9.71;83.64
6435;BME280;3250;42.694;23.278;2023-04-30T02:12:43;94533.63;;;9.76;84.01
6435;BME280;3250;42.694;23.278;2023-04-30T02:15:09;94531.13;;;9.81;83.51
6435;BME280;3250;42.694;23.278;2023-04-30T02:17:35;94528.66;;;9.86;83.17
6435;BME280;3250;42.694;23.278;2023-04-30T02:20:00;94531.09;;;9.88;82.85
6435;BME280;3250;42.694;23.278;2023-04-30T02:22:26;94503.72;;;9.70;82.51
6435;BME280;3250;42.694;23.278;2023-04-30T02:24:51;94527.66;;;9.87;82.85
6435;BME280;3250;42.694;23.278;2023-04-30T02:27:23;94506.72;;;9.74;82.74
6435;BME280;3250;42.694;23.278;2023-04-30T02:29:48;94526.84;;;9.87;82.86
6435;BME280;3250;42.694;23.278;2023-04-30T02:32:14;94499.88;;;9.73;83.51
6435;BME280;3250;42.694;23.278;2023-04-30T02:34:40;94493.81;;;9.72;83.44
6435;BME280;3250;42.694;23.278;2023-04-30T02:37:06;94525.78;;;9.94;83.47
6435;BME280;3250;42.694;23.278;2023-04-30T02:39:32;94526.34;;;9.96;83.16
6435;BME280;3250;42.694;23.278;2023-04-30T02:41:57;94502.38;;;9.86;83.33
6435;BME280;3250;42.694;23.278;2023-04-30T02:44:23;94526.53;;;10.01;83.46
6435;BME280;3250;42.694;23.278;2023-04-30T02:46:48;94528.72;;;10.04;83.68
6435;BME280;3250;42.694;23.278;2023-04-30T02:49:13;94531.13;;;10.06;83.56
6435;BME280;3250;42.694;23.278;2023-04-30T02:51:39;94534.97;;;10.10;83.39
6435;BME280;3250;42.694;23.278;2023-04-30T02:54:05;94523.03;;;10.07;83.26
6435;BME280;3250;42.694;23.278;2023-04-30T02:56:30;94536.72;;;10.16;83.36
6435;BME280;3250;42.694;23.278;2023-04-30T02:58:55;94539.31;;;10.23;83.03
6435;BME280;3250;42.694;23.278;2023-04-30T03:01:21;94538.47;;;10.29;82.75
6435;BME280;3250;42.694;23.278;2023-04-30T03:03:46;94543.50;;;10.30;83.22
6435;BME280;3250;42.694;23.278;2023-04-30T03:06:11;94546.50;;;10.34;82.98
6435;BME280;3250;42.694;23.278;2023-04-30T03:08:37;94547.31;;;10.34;82.83
6435;BME280;3250;42.694;23.278;2023-04-30T03:11:02;94547.91;;;10.36;82.51
6435;BME280;3250;42.694;23.278;2023-04-30T03:13:28;94548.72;;;10.37;82.56
6435;BME280;3250;42.694;23.278;2023-04-30T03:16:00;94545.50;;;10.35;82.31
6435;BME280;3250;42.694;23.278;2023-04-30T03:18:27;94550.97;;;10.33;82.62
6435;BME280;3250;42.694;23.278;2023-04-30T03:20:53;94553.97;;;10.37;82.78
6435;BME280;3250;42.694;23.278;2023-04-30T03:23:18;94554.78;;;10.37;83.45
6435;BME280;3250;42.694;23.278;2023-04-30T03:25:43;94554.53;;;10.39;83.21
6435;BME280;3250;42.694;23.278;2023-04-30T03:28:09;94553.53;;;10.40;83.27
6435;BME280;3250;42.694;23.278;2023-04-30T03:30:34;94549.56;;;10.31;83.87
6435;BME280;3250;42.694;23.278;2023-04-30T03:33:00;94555.63;;;10.31;84.13
6435;BME280;3250;42.694;23.278;2023-04-30T03:35:25;94551.78;;;10.34;84.47
6435;BME280;3250;42.694;23.278;2023-04-30T03:37:50;94561.41;;;10.40;84.25
6435;BME280;3250;42.694;23.278;2023-04-30T03:40:16;94545.69;;;10.33;84.11
6435;BME280;3250;42.694;23.278;2023-04-30T03:42:41;94562.81;;;10.42;84.39
6435;BME280;3250;42.694;23.278;2023-04-30T03:45:07;94567.28;;;10.42;84.52
6435;BME280;3250;42.694;23.278;2023-04-30T03:47:32;94571.44;;;10.49;84.75
6435;BME280;3250;42.694;23.278;2023-04-30T03:49:58;94570.66;;;10.49;84.93
6435;BME280;3250;42.694;23.278;2023-04-30T03:52:23;94572.19;;;10.56;84.84
6435;BME280;3250;42.694;23.278;2023-04-30T03:54:48;94572.56;;;10.60;85.01
6435;BME280;3250;42.694;23.278;2023-04-30T03:57:14;94580.59;;;10.65;84.60
6435;BME280;3250;42.694;23.278;2023-04-30T03:59:40;94587.47;;;10.66;84.87
6435;BME280;3250;42.694;23.278;2023-04-30T04:02:06;94582.75;;;10.75;84.25
6435;BME280;3250;42.694;23.278;2023-04-30T04:04:32;94580.50;;;10.78;84.15
6435;BME280;3250;42.694;23.278;2023-04-30T04:06:58;94578.44;;;10.80;83.35
6435;BME280;3250;42.694;23.278;2023-04-30T04:09:23;94583.13;;;10.78;82.06
6435;BME280;3250;42.694;23.278;2023-04-30T04:11:49;94581.81;;;10.87;81.39
6435;BME280;3250;42.694;23.278;2023-04-30T04:14:14;94569.97;;;10.78;81.41
6435;BME280;3250;42.694;23.278;2023-04-30T04:16:41;94584.56;;;10.92;80.84
6435;BME280;3250;42.694;23.278;2023-04-30T04:19:06;94584.97;;;10.96;80.62
6435;BME280;3250;42.694;23.278;2023-04-30T04:21:32;94587.72;;;11.01;80.72
6435;BME280;3250;42.694;23.278;2023-04-30T04:23:57;94585.69;;;11.03;79.71
6435;BME280;3250;42.694;23.278;2023-04-30T04:26:23;94598.69;;;11.16;79.22
6435;BME280;3250;42.694;23.278;2023-04-30T04:28:50;94588.97;;;11.17;79.64
6435;BME280;3250;42.694;23.278;2023-04-30T04:31:16;94589.72;;;11.24;78.85
6435;BME280;3250;42.694;23.278;2023-04-30T04:33:43;94583.97;;;11.27;78.92
6435;BME280;3250;42.694;23.278;2023-04-30T04:36:08;94574.84;;;11.29;78.79
6435;BME280;3250;42.694;23.278;2023-04-30T04:38:33;94598.44;;;11.54;77.84
6435;BME280;3250;42.694;23.278;2023-04-30T04:40:59;94604.88;;;11.58;77.17
6435;BME280;3250;42.694;23.278;2023-04-30T04:43:25;94612.91;;;11.63;76.13
6435;BME280;3250;42.694;23.278;2023-04-30T04:45:50;94607.66;;;11.63;75.97
6435;BME280;3250;42.694;23.278;2023-04-30T04:48:16;94610.28;;;11.63;75.47
6435;BME280;3250;42.694;23.278;2023-04-30T04:50:41;94610.50;;;11.62;76.15
6435;BME280;3250;42.694;23.278;2023-04-30T04:53:07;94611.31;;;11.62;76.28
6435;BME280;3250;42.694;23.278;2023-04-30T04:55:32;94612.09;;;11.63;75.88
6435;BME280;3250;42.694;23.278;2023-04-30T04:57:58;94618.56;;;11.67;77.03
6435;BME280;3250;42.694;23.278;2023-04-30T05:00:23;94615.69;;;11.68;77.53
6435;BME280;3250;42.694;23.278;2023-04-30T05:02:50;94623.75;;;11.73;76.80
6435;BME280;3250;42.694;23.278;2023-04-30T05:05:15;94616.63;;;11.74;75.97
6435;BME280;3250;42.694;23.278;2023-04-30T05:07:41;94624.69;;;11.79;76.30
6435;BME280;3250;42.694;23.278;2023-04-30T05:10:07;94622.66;;;11.81;74.17
6435;BME280;3250;42.694;23.278;2023-04-30T05:12:33;94620.22;;;11.80;73.88
6435;BME280;3250;42.694;23.278;2023-04-30T05:14:58;94622.88;;;11.80;74.49
6435;BME280;3250;42.694;23.278;2023-04-30T05:17:24;94599.06;;;11.68;74.63
6435;BME280;3250;42.694;23.278;2023-04-30T05:19:50;94612.31;;;11.80;74.81
6435;BME280;3250;42.694;23.278;2023-04-30T05:22:15;94597.19;;;11.75;75.56
6435;BME280;3250;42.694;23.278;2023-04-30T05:24:41;94610.75;;;11.90;75.47
6435;BME280;3250;42.694;23.278;2023-04-30T05:27:07;94621.91;;;12.04;75.31
6435;BME280;3250;42.694;23.278;2023-04-30T05:29:32;94615.59;;;12.05;75.15
6435;BME280;3250;42.694;23.278;2023-04-30T05:31:58;94622.38;;;12.01;74.48
6435;BME280;3250;42.694;23.278;2023-04-30T05:34:23;94621.84;;;12.11;75.32
6435;BME280;3250;42.694;23.278;2023-04-30T05:36:49;94626.78;;;12.19;74.86
6435;BME280;3250;42.694;23.278;2023-04-30T05:39:14;94627.81;;;12.29;75.12
6435;BME280;3250;42.694;23.278;2023-04-30T05:41:40;94621.75;;;12.40;75.04
6435;BME280;3250;42.694;23.278;2023-04-30T05:44:05;94623.03;;;12.50;74.01
6435;BME280;3250;42.694;23.278;2023-04-30T05:46:31;94627.63;;;12.54;73.71
6435;BME280;3250;42.694;23.278;2023-04-30T05:48:57;94619.03;;;12.59;73.18
6435;BME280;3250;42.694;23.278;2023-04-30T05:51:22;94616.84;;;12.67;73.65
6435;BME280;3250;42.694;23.278;2023-04-30T05:53:48;94602.25;;;12.65;73.34
6435;BME280;3250;42.694;23.278;2023-04-30T05:56:13;94632.81;;;12.84;71.46
6435;BME280;3250;42.694;23.278;2023-04-30T05:58:39;94627.88;;;12.88;71.72
6435;BME280;3250;42.694;23.278;2023-04-30T06:01:05;94604.47;;;12.79;71.07
6435;BME280;3250;42.694;23.278;2023-04-30T06:03:30;94639.00;;;13.01;70.19
6435;BME280;3250;42.694;23.278;2023-04-30T06:05:58;94642.91;;;13.10;70.52
6435;BME280;3250;42.694;23.278;2023-04-30T06:08:23;94639.59;;;13.15;70.28
6435;BME280;3250;42.694;23.278;2023-04-30T06:10:49;94626.84;;;13.12;70.77
6435;BME280;3250;42.694;23.278;2023-04-30T06:13:15;94625.47;;;13.21;71.51
6435;BME280;3250;42.694;23.278;2023-04-30T06:15:40;94630.84;;;13.38;71.69
6435;BME280;3250;42.694;23.278;2023-04-30T06:18:06;94619.66;;;13.47;71.26
6435;BME280;3250;42.694;23.278;2023-04-30T06:20:31;94649.94;;;13.80;70.75
6435;BME280;3250;42.694;23.278;2023-04-30T06:22:57;94626.19;;;13.85;70.07
6435;BME280;3250;42.694;23.278;2023-04-30T06:25:24;94652.66;;;14.13;67.98
6435;BME280;3250;42.694;23.278;2023-04-30T06:27:50;94652.03;;;14.23;68.03
6435;BME280;3250;42.694;23.278;2023-04-30T06:30:18;94656.94;;;14.31;66.96
6435;BME280;3250;42.694;23.278;2023-04-30T06:32:43;94660.25;;;14.38;67.00
6435;BME280;3250;42.694;23.278;2023-04-30T06:35:09;94662.53;;;14.46;66.63
6435;BME280;3250;42.694;23.278;2023-04-30T06:37:35;94645.53;;;14.59;66.69
6435;BME280;3250;42.694;23.278;2023-04-30T06:40:03;94656.66;;;15.11;65.19
6435;BME280;3250;42.694;23.278;2023-04-30T06:42:29;94653.50;;;15.91;63.42
6435;BME280;3250;42.694;23.278;2023-04-30T06:45:02;94657.41;;;16.37;58.73
6435;BME280;3250;42.694;23.278;2023-04-30T06:47:31;94642.94;;;16.55;56.41
6435;BME280;3250;42.694;23.278;2023-04-30T06:50:01;94661.22;;;17.10;58.56
6435;BME280;3250;42.694;23.278;2023-04-30T06:52:27;94671.50;;;17.39;53.59
6435;BME280;3250;42.694;23.278;2023-04-30T06:54:52;94668.59;;;17.40;53.82
6435;BME280;3250;42.694;23.278;2023-04-30T06:57:17;94664.88;;;17.41;55.49
6435;BME280;3250;42.694;23.278;2023-04-30T06:59:43;94659.53;;;17.36;54.85
6435;BME280;3250;42.694;23.278;2023-04-30T07:02:08;94665.97;;;17.03;54.22
6435;BME280;3250;42.694;23.278;2023-04-30T07:04:34;94660.31;;;16.94;55.88
6435;BME280;3250;42.694;23.278;2023-04-30T07:06:59;94658.63;;;16.83;54.98
6435;BME280;3250;42.694;23.278;2023-04-30T07:09:27;94638.09;;;16.74;56.53
6435;BME280;3250;42.694;23.278;2023-04-30T07:11:53;94640.72;;;16.69;56.47
6435;BME280;3250;42.694;23.278;2023-04-30T07:14:18;94644.47;;;16.73;58.13
6435;BME280;3250;42.694;23.278;2023-04-30T07:16:44;94658.09;;;16.81;59.22
6435;BME280;3250;42.694;23.278;2023-04-30T07:19:09;94657.78;;;16.78;58.66
6435;BME280;3250;42.694;23.278;2023-04-30T07:21:35;94623.09;;;16.36;57.29
6435;BME280;3250;42.694;23.278;2023-04-30T07:24:00;94654.28;;;16.18;58.31
6435;BME280;3250;42.694;23.278;2023-04-30T07:26:25;94651.69;;;15.97;60.94
6435;BME280;3250;42.694;23.278;2023-04-30T07:28:51;94660.66;;;15.91;59.63
6435;BME280;3250;42.694;23.278;2023-04-30T07:31:16;94657.22;;;15.95;60.56
6435;BME280;3250;42.694;23.278;2023-04-30T07:33:43;94634.09;;;15.91;61.33
6435;BME280;3250;42.694;23.278;2023-04-30T07:36:09;94662.69;;;16.10;59.68
6435;BME280;3250;42.694;23.278;2023-04-30T07:38:34;94665.91;;;16.12;60.41
6435;BME280;3250;42.694;23.278;2023-04-30T07:41:00;94655.09;;;16.19;61.48
6435;BME280;3250;42.694;23.278;2023-04-30T07:43:27;94659.44;;;16.25;61.13
6435;BME280;3250;42.694;23.278;2023-04-30T07:45:52;94659.00;;;16.38;62.05
6435;BME280;3250;42.694;23.278;2023-04-30T07:48:19;94660.41;;;16.46;61.83
6435;BME280;3250;42.694;23.278;2023-04-30T07:50:47;94662.09;;;16.57;60.94
6435;BME280;3250;42.694;23.278;2023-04-30T07:53:12;94662.38;;;16.60;59.08
6435;BME280;3250;42.694;23.278;2023-04-30T07:55:38;94665.22;;;16.76;60.32
6435;BME280;3250;42.694;23.278;2023-04-30T07:58:03;94660.13;;;17.06;60.18
6435;BME280;3250;42.694;23.278;2023-04-30T08:00:29;94655.78;;;17.32;58.86
6435;BME280;3250;42.694;23.278;2023-04-30T08:02:55;94665.00;;;17.61;57.65
6435;BME280;3250;42.694;23.278;2023-04-30T08:05:20;94674.91;;;17.71;57.54
6435;BME280;3250;42.694;23.278;2023-04-30T08:07:46;94673.09;;;17.82;57.39
6435;BME280;3250;42.694;23.278;2023-04-30T08:10:11;94673.13;;;17.87;56.96
6435;BME280;3250;42.694;23.278;2023-04-30T08:12:37;94677.13;;;17.89;56.99
6435;BME280;3250;42.694;23.278;2023-04-30T08:15:04;94672.81;;;17.83;56.05
6435;BME280;3250;42.694;23.278;2023-04-30T08:17:33;94679.22;;;17.82;55.36
6435;BME280;3250;42.694;23.278;2023-04-30T08:20:00;94663.16;;;17.62;55.70
6435;BME280;3250;42.694;23.278;2023-04-30T08:22:25;94670.25;;;17.46;55.53
6435;BME280;3250;42.694;23.278;2023-04-30T08:24:51;94680.88;;;17.46;56.95
6435;BME280;3250;42.694;23.278;2023-04-30T08:27:16;94675.50;;;17.36;56.03
6435;BME280;3250;42.694;23.278;2023-04-30T08:29:41;94677.63;;;17.39;56.91
6435;BME280;3250;42.694;23.278;2023-04-30T08:32:07;94678.44;;;17.40;55.95
6435;BME280;3250;42.694;23.278;2023-04-30T08:34:33;94680.34;;;17.44;56.77
6435;BME280;3250;42.694;23.278;2023-04-30T08:36:59;94682.59;;;17.62;56.85
6435;BME280;3250;42.694;23.278;2023-04-30T08:39:25;94663.31;;;17.45;53.15
6435;BME280;3250;42.694;23.278;2023-04-30T08:41:54;94661.75;;;17.54;55.77
6435;BME280;3250;42.694;23.278;2023-04-30T08:44:21;94673.09;;;17.82;55.66
6435;BME280;3250;42.694;23.278;2023-04-30T08:46:55;94670.50;;;18.02;55.45
6435;BME280;3250;42.694;23.278;2023-04-30T08:49:21;94659.66;;;18.24;53.33
6435;BME280;3250;42.694;23.278;2023-04-30T08:51:47;94645.81;;;18.32;52.80
6435;BME280;3250;42.694;23.278;2023-04-30T08:54:13;94649.31;;;18.47;52.64
6435;BME280;3250;42.694;23.278;2023-04-30T08:56:41;94665.88;;;18.80;50.10
6435;BME280;3250;42.694;23.278;2023-04-30T08:59:06;94658.69;;;18.65;49.39
6435;BME280;3250;42.694;23.278;2023-04-30T09:01:33;94656.03;;;18.65;50.93
6435;BME280;3250;42.694;23.278;2023-04-30T09:03:59;94653.09;;;18.72;49.24
6435;BME280;3250;42.694;23.278;2023-04-30T09:06:24;94644.53;;;19.05;49.61
6435;BME280;3250;42.694;23.278;2023-04-30T09:08:51;94625.81;;;19.31;48.95
6435;BME280;3250;42.694;23.278;2023-04-30T09:13:49;94637.78;;;20.23;50.05
6435;BME280;3250;42.694;23.278;2023-04-30T09:16:17;94624.91;;;20.69;47.59
6435;BME280;3250;42.694;23.278;2023-04-30T09:18:42;94622.75;;;21.05;46.56
6435;BME280;3250;42.694;23.278;2023-04-30T09:21:07;94620.66;;;21.31;47.82
6435;BME280;3250;42.694;23.278;2023-04-30T09:23:33;94631.72;;;21.72;45.68
6435;BME280;3250;42.694;23.278;2023-04-30T09:25:59;94618.63;;;21.70;42.05
6435;BME280;3250;42.694;23.278;2023-04-30T09:28:25;94616.78;;;21.42;42.35
6435;BME280;3250;42.694;23.278;2023-04-30T09:30:55;94607.66;;;21.14;42.25
6435;BME280;3250;42.694;23.278;2023-04-30T09:33:21;94607.72;;;20.41;43.90
6435;BME280;3250;42.694;23.278;2023-04-30T09:35:47;94606.16;;;20.74;48.96
6435;BME280;3250;42.694;23.278;2023-04-30T09:38:25;94613.94;;;21.33;47.77
6435;BME280;3250;42.694;23.278;2023-04-30T09:40:51;94593.03;;;21.59;45.02
6435;BME280;3250;42.694;23.278;2023-04-30T09:43:17;94596.50;;;21.83;43.12
6435;BME280;3250;42.694;23.278;2023-04-30T09:45:46;94603.31;;;21.95;44.02
6435;BME280;3250;42.694;23.278;2023-04-30T09:48:17;94595.97;;;22.24;44.30
6435;BME280;3250;42.694;23.278;2023-04-30T09:50:45;94591.69;;;22.42;41.18
6435;BME280;3250;42.694;23.278;2023-04-30T09:53:12;94597.25;;;22.64;40.05
6435;BME280;3250;42.694;23.278;2023-04-30T09:55:41;94596.53;;;22.58;41.84
6435;BME280;3250;42.694;23.278;2023-04-30T09:58:08;94591.28;;;22.67;41.98
6435;BME280;3250;42.694;23.278;2023-04-30T10:00:35;94593.22;;;22.48;40.67
6435;BME280;3250;42.694;23.278;2023-04-30T10:03:08;94587.88;;;22.29;40.01
6435;BME280;3250;42.694;23.278;2023-04-30T10:05:47;94585.75;;;21.83;39.53
6435;BME280;3250;42.694;23.278;2023-04-30T10:08:33;94577.25;;;21.58;42.37
6435;BME280;3250;42.694;23.278;2023-04-30T10:11:04;94587.09;;;21.38;42.21
6435;BME280;3250;42.694;23.278;2023-04-30T10:13:36;94578.94;;;21.25;43.33
6435;BME280;3250;42.694;23.278;2023-04-30T10:16:25;94580.38;;;21.12;45.87
6435;BME280;3250;42.694;23.278;2023-04-30T10:18:52;94585.69;;;20.88;44.98
6435;BME280;3250;42.694;23.278;2023-04-30T10:21:21;94593.59;;;20.75;45.82
6435;BME280;3250;42.694;23.278;2023-04-30T10:23:47;94626.66;;;20.50;45.30
6435;BME280;3250;42.694;23.278;2023-04-30T10:26:13;94623.44;;;20.04;48.72
6435;BME280;3250;42.694;23.278;2023-04-30T10:28:41;94643.94;;;19.59;49.80
6435;BME280;3250;42.694;23.278;2023-04-30T10:31:07;94635.47;;;19.01;54.08
6435;BME280;3250;42.694;23.278;2023-04-30T10:36:42;94609.72;;;17.79;61.97
6435;BME280;3250;42.694;23.278;2023-04-30T10:39:09;94628.28;;;17.63;63.45
6435;BME280;3250;42.694;23.278;2023-04-30T10:41:35;94615.59;;;17.28;65.13
6435;BME280;3250;42.694;23.278;2023-04-30T10:44:01;94587.88;;;17.24;69.27
6435;BME280;3250;42.694;23.278;2023-04-30T10:46:29;94610.22;;;17.70;68.88
6435;BME280;3250;42.694;23.278;2023-04-30T10:48:55;94611.09;;;17.96;65.70
6435;BME280;3250;42.694;23.278;2023-04-30T10:51:21;94581.78;;;17.96;60.90
6435;BME280;3250;42.694;23.278;2023-04-30T10:53:50;94598.66;;;18.32;60.46
6435;BME280;3250;42.694;23.278;2023-04-30T10:56:30;94601.03;;;18.44;55.90
6435;BME280;3250;42.694;23.278;2023-04-30T10:58:59;94598.13;;;18.61;56.81
6435;BME280;3250;42.694;23.278;2023-04-30T11:01:28;94573.63;;;18.64;58.46
6435;BME280;3250;42.694;23.278;2023-04-30T11:04:08;94596.75;;;19.04;56.09
6435;BME280;3250;42.694;23.278;2023-04-30T11:09:43;94588.38;;;19.61;53.21
6435;BME280;3250;42.694;23.278;2023-04-30T11:14:39;94571.09;;;19.98;47.31
6435;BME280;3250;42.694;23.278;2023-04-30T11:17:05;94587.63;;;20.05;47.35
6435;BME280;3250;42.694;23.278;2023-04-30T11:19:31;94592.41;;;20.08;50.68
6435;BME280;3250;42.694;23.278;2023-04-30T11:27:26;94584.38;;;20.08;48.23
6435;BME280;3250;42.694;23.278;2023-04-30T11:29:53;94555.09;;;19.92;47.76
6435;BME280;3250;42.694;23.278;2023-04-30T11:32:20;94582.72;;;20.17;46.66
6435;BME280;3250;42.694;23.278;2023-04-30T11:34:46;94571.00;;;20.13;48.00
6435;BME280;3250;42.694;23.278;2023-04-30T11:37:18;94577.09;;;20.18;46.55
6435;BME280;3250;42.694;23.278;2023-04-30T11:39:45;94581.34;;;20.24;47.49
6435;BME280;3250;42.694;23.278;2023-04-30T11:42:15;94574.88;;;20.41;47.86
6435;BME280;3250;42.694;23.278;2023-04-30T11:44:41;94575.28;;;20.58;45.82
6435;BME280;3250;42.694;23.278;2023-04-30T11:47:07;94579.31;;;20.50;46.96
6435;BME280;3250;42.694;23.278;2023-04-30T11:49:33;94581.78;;;20.42;48.34
6435;BME280;3250;42.694;23.278;2023-04-30T11:51:58;94573.03;;;20.26;47.56
6435;BME280;3250;42.694;23.278;2023-04-30T11:54:23;94564.81;;;20.22;48.06
6435;BME280;3250;42.694;23.278;2023-04-30T11:56:49;94568.34;;;20.08;48.57
6435;BME280;3250;42.694;23.278;2023-04-30T11:59:15;94559.72;;;20.21;50.24
6435;BME280;3250;42.694;23.278;2023-04-30T12:01:42;94563.38;;;19.96;48.76
6435;BME280;3250;42.694;23.278;2023-04-30T12:04:07;94563.94;;;19.18;50.11
6435;BME280;3250;42.694;23.278;2023-04-30T12:06:34;94566.13;;;18.81;51.05
6435;BME280;3250;42.694;23.278;2023-04-30T12:09:00;94568.81;;;18.66;52.12
6435;BME280;3250;42.694;23.278;2023-04-30T12:11:29;94576.81;;;18.61;52.97
6435;BME280;3250;42.694;23.278;2023-04-30T12:13:59;94561.31;;;18.42;52.87
6435;BME280;3250;42.694;23.278;2023-04-30T12:16:27;94585.84;;;18.24;53.90
6435;BME280;3250;42.694;23.278;2023-04-30T12:18:53;94589.53;;;18.03;53.79
6435;BME280;3250;42.694;23.278;2023-04-30T12:21:20;94600.13;;;17.83;55.05
6435;BME280;3250;42.694;23.278;2023-04-30T12:23:46;94574.44;;;17.56;56.13
6435;BME280;3250;42.694;23.278;2023-04-30T12:26:12;94607.25;;;17.62;55.73
6435;BME280;3250;42.694;23.278;2023-04-30T12:28:37;94604.78;;;17.50;56.51
6435;BME280;3250;42.694;23.278;2023-04-30T12:31:03;94602.84;;;17.35;57.46
6435;BME280;3250;42.694;23.278;2023-04-30T12:33:29;94582.75;;;17.08;58.47
6435;BME280;3250;42.694;23.278;2023-04-30T12:35:55;94592.88;;;17.16;58.79
6435;BME280;3250;42.694;23.278;2023-04-30T12:38:23;94601.38;;;17.13;59.42
6435;BME280;3250;42.694;23.278;2023-04-30T12:40:49;94598.16;;;17.06;59.35
6435;BME280;3250;42.694;23.278;2023-04-30T12:43:16;94605.28;;;16.95;59.88
6435;BME280;3250;42.694;23.278;2023-04-30T12:45:49;94606.06;;;16.95;60.59
6435;BME280;3250;42.694;23.278;2023-04-30T12:48:19;94578.63;;;16.85;58.53
6435;BME280;3250;42.694;23.278;2023-04-30T12:50:58;94595.38;;;16.85;59.88
6435;BME280;3250;42.694;23.278;2023-04-30T12:53:24;94602.66;;;17.00;60.21
6435;BME280;3250;42.694;23.278;2023-04-30T12:58:34;94587.25;;;17.02;56.89
6435;BME280;3250;42.694;23.278;2023-04-30T13:00:59;94611.09;;;17.39;56.55
6435;BME280;3250;42.694;23.278;2023-04-30T13:03:25;94607.63;;;17.39;56.91
6435;BME280;3250;42.694;23.278;2023-04-30T13:05:51;94596.66;;;17.25;56.91
6435;BME280;3250;42.694;23.278;2023-04-30T13:08:18;94594.47;;;17.12;57.86
6435;BME280;3250;42.694;23.278;2023-04-30T13:10:44;94584.91;;;17.16;59.50
6435;BME280;3250;42.694;23.278;2023-04-30T13:13:11;94578.03;;;17.25;59.40
6435;BME280;3250;42.694;23.278;2023-04-30T13:15:37;94544.75;;;17.12;58.82
6435;BME280;3250;42.694;23.278;2023-04-30T13:18:02;94569.56;;;17.33;59.15
6435;BME280;3250;42.694;23.278;2023-04-30T13:20:28;94556.16;;;17.13;59.44
6435;BME280;3250;42.694;23.278;2023-04-30T13:22:54;94555.16;;;17.19;58.45
6435;BME280;3250;42.694;23.278;2023-04-30T13:25:19;94562.63;;;17.27;58.24
6435;BME280;3250;42.694;23.278;2023-04-30T13:27:45;94556.00;;;17.34;58.18
6435;BME280;3250;42.694;23.278;2023-04-30T13:30:10;94557.41;;;17.52;57.59
6435;BME280;3250;42.694;23.278;2023-04-30T13:32:36;94556.06;;;17.45;57.69
6435;BME280;3250;42.694;23.278;2023-04-30T13:35:02;94530.25;;;17.45;57.27
6435;BME280;3250;42.694;23.278;2023-04-30T13:37:28;94548.97;;;17.70;56.47
6435;BME280;3250;42.694;23.278;2023-04-30T13:39:56;94551.09;;;17.73;55.61
6435;BME280;3250;42.694;23.278;2023-04-30T13:42:22;94539.88;;;17.61;56.12
6435;BME280;3250;42.694;23.278;2023-04-30T13:44:47;94552.66;;;17.64;55.73
6435;BME280;3250;42.694;23.278;2023-04-30T13:47:14;94556.00;;;17.34;55.73
6435;BME280;3250;42.694;23.278;2023-04-30T13:49:40;94554.44;;;17.44;56.06